createdAt,value
2022-11-13T00:01:20.682Z,7.30
2022-11-13T00:03:47.918Z,7.32
2022-11-13T00:06:16.768Z,7.29
2022-11-13T00:08:43.877Z,7.24
2022-11-13T00:11:15.890Z,7.22
2022-11-13T00:13:45.417Z,7.21
2022-11-13T00:16:18.215Z,7.21
2022-11-13T00:18:45.991Z,7.17
2022-11-13T00:21:20.092Z,7.13
2022-11-13T00:23:46.998Z,7.14
2022-11-13T00:26:23.233Z,7.12
2022-11-13T00:28:55.997Z,7.13
2022-11-13T00:31:23.290Z,7.09
2022-11-13T00:34:25.781Z,7.07
2022-11-13T00:36:37.354Z,7.07
2022-11-13T00:39:04.164Z,7.06
2022-11-13T00:41:30.937Z,7.03
2022-11-13T00:43:57.806Z,7.05
2022-11-13T00:46:24.592Z,7.05
2022-11-13T00:48:51.378Z,7.00
2022-11-13T00:51:19.515Z,6.99
2022-11-13T00:53:46.280Z,6.89
2022-11-13T00:56:13.225Z,6.97
2022-11-13T00:58:39.993Z,6.97
2022-11-13T01:01:14.943Z,6.96
2022-11-13T01:03:42.214Z,6.91
2022-11-13T01:06:22.163Z,6.78
2022-11-13T01:08:49.485Z,6.85
2022-11-13T01:11:19.733Z,6.82
2022-11-13T01:13:49.817Z,6.79
2022-11-13T01:16:20.843Z,6.81
2022-11-13T01:18:48.371Z,6.80
2022-11-13T01:21:19.223Z,6.81
2022-11-13T01:23:46.563Z,6.78
2022-11-13T01:26:19.979Z,6.78
2022-11-13T01:28:48.012Z,6.67
2022-11-13T01:31:21.691Z,6.78
2022-11-13T01:33:49.387Z,6.73
2022-11-13T01:36:20.346Z,6.69
2022-11-13T01:38:47.770Z,6.76
2022-11-13T01:41:26.729Z,6.78
2022-11-13T01:43:55.298Z,6.73
2022-11-13T01:46:34.891Z,6.73
2022-11-13T01:49:11.043Z,6.68
2022-11-13T01:51:43.394Z,6.71
2022-11-13T01:54:17.881Z,6.71
2022-11-13T01:56:44.904Z,6.70
2022-11-13T01:59:14.251Z,6.75
2022-11-13T02:01:41.205Z,6.68
2022-11-13T02:04:08.105Z,6.70
2022-11-13T02:07:01.201Z,6.66
2022-11-13T02:09:46.648Z,6.60
2022-11-13T02:12:31.765Z,6.60
2022-11-13T02:15:00.868Z,6.61
2022-11-13T02:17:35.304Z,6.57
2022-11-13T02:20:05.894Z,6.66
2022-11-13T02:22:36.317Z,6.67
2022-11-13T02:25:04.649Z,6.63
2022-11-13T02:27:45.671Z,6.76
2022-11-13T02:30:31.758Z,6.64
2022-11-13T02:32:59.346Z,6.43
2022-11-13T02:35:35.815Z,6.68
2022-11-13T02:38:05.536Z,6.68
2022-11-13T02:40:33.833Z,6.65
2022-11-13T02:43:00.657Z,6.64
2022-11-13T02:45:27.468Z,6.64
2022-11-13T02:47:54.223Z,6.66
2022-11-13T02:50:21.231Z,6.67
2022-11-13T02:52:48.019Z,6.67
2022-11-13T02:55:14.836Z,6.64
2022-11-13T02:57:41.570Z,6.65
2022-11-13T03:00:13.511Z,6.64
2022-11-13T03:02:41.208Z,6.62
2022-11-13T03:05:13.253Z,6.67
2022-11-13T03:07:41.817Z,6.68
2022-11-13T03:10:11.287Z,6.59
2022-11-13T03:12:38.639Z,6.62
2022-11-13T03:15:07.690Z,6.61
2022-11-13T03:17:34.933Z,6.80
2022-11-13T03:20:02.211Z,6.62
2022-11-13T03:22:29.007Z,6.59
2022-11-13T03:24:55.769Z,6.62
2022-11-13T03:27:22.629Z,6.57
2022-11-13T03:29:49.697Z,6.55
2022-11-13T03:32:16.518Z,6.50
2022-11-13T03:34:43.408Z,6.53
2022-11-13T03:37:10.249Z,6.54
2022-11-13T03:39:37.012Z,6.54
2022-11-13T03:42:03.824Z,6.56
2022-11-13T03:44:30.622Z,6.54
2022-11-13T03:46:57.390Z,6.50
2022-11-13T03:49:24.153Z,6.51
2022-11-13T03:51:50.931Z,6.44
2022-11-13T03:54:17.774Z,6.61
2022-11-13T03:56:44.594Z,6.54
2022-11-13T03:59:11.364Z,6.37
2022-11-13T04:01:38.181Z,6.35
2022-11-13T04:04:05.165Z,6.17
2022-11-13T04:06:32.219Z,6.36
2022-11-13T04:08:59.044Z,6.34
2022-11-13T04:11:25.949Z,6.28
2022-11-13T04:13:52.718Z,6.38
2022-11-13T04:16:19.477Z,6.44
2022-11-13T04:18:46.243Z,6.33
2022-11-13T04:21:13.057Z,6.21
2022-11-13T04:23:39.915Z,6.28
2022-11-13T04:26:06.721Z,6.33
2022-11-13T04:28:33.760Z,6.34
2022-11-13T04:31:00.554Z,6.29
2022-11-13T04:33:27.400Z,6.24
2022-11-13T04:35:54.149Z,6.36
2022-11-13T04:38:20.978Z,6.31
2022-11-13T04:40:51.468Z,6.22
2022-11-13T04:43:18.250Z,6.24
2022-11-13T04:45:45.078Z,6.22
2022-11-13T04:48:12.060Z,6.21
2022-11-13T04:50:38.806Z,6.21
2022-11-13T04:53:05.556Z,6.18
2022-11-13T04:55:32.349Z,6.16
2022-11-13T04:57:59.111Z,6.26
2022-11-13T05:00:25.889Z,6.24
2022-11-13T05:02:52.711Z,6.15
2022-11-13T05:05:19.545Z,6.20
2022-11-13T05:07:46.348Z,6.15
2022-11-13T05:10:13.198Z,6.08
2022-11-13T05:12:39.961Z,6.08
2022-11-13T05:15:07.571Z,6.05
2022-11-13T05:17:34.358Z,6.04
2022-11-13T05:20:01.134Z,6.03
2022-11-13T05:22:28.068Z,5.86
2022-11-13T05:24:54.830Z,5.90
2022-11-13T05:27:21.737Z,5.86
2022-11-13T05:29:48.557Z,5.96
2022-11-13T05:32:15.410Z,5.96
2022-11-13T05:34:42.172Z,5.90
2022-11-13T05:37:09.202Z,5.80
2022-11-13T05:39:36.016Z,5.82
2022-11-13T05:42:02.795Z,5.79
2022-11-13T05:44:29.697Z,5.77
2022-11-13T05:46:56.519Z,5.80
2022-11-13T05:49:23.301Z,5.79
2022-11-13T05:51:50.109Z,5.81
2022-11-13T05:54:16.895Z,5.77
2022-11-13T05:56:43.683Z,5.78
2022-11-13T05:59:10.540Z,5.73
2022-11-13T06:01:39.840Z,5.78
2022-11-13T06:04:07.899Z,5.80
2022-11-13T06:06:35.205Z,5.78
2022-11-13T06:09:05.219Z,5.82
2022-11-13T06:11:32.599Z,5.84
2022-11-13T06:14:00.168Z,5.77
2022-11-13T06:16:33.607Z,5.75
2022-11-13T06:19:05.979Z,5.80
2022-11-13T06:21:34.856Z,5.75
2022-11-13T06:24:02.222Z,5.76
2022-11-13T06:26:33.639Z,5.79
2022-11-13T06:29:02.731Z,5.84
2022-11-13T06:31:33.363Z,5.79
2022-11-13T06:34:01.256Z,5.72
2022-11-13T06:36:34.748Z,5.80
2022-11-13T06:39:02.333Z,5.76
2022-11-13T06:41:31.275Z,5.72
2022-11-13T06:44:02.780Z,5.70
2022-11-13T06:46:30.938Z,5.69
2022-11-13T06:48:59.373Z,5.72
2022-11-13T06:51:29.381Z,5.71
2022-11-13T06:53:56.959Z,5.67
2022-11-13T06:56:24.174Z,5.55
2022-11-13T06:58:50.977Z,5.71
2022-11-13T07:01:21.546Z,5.71
2022-11-13T07:03:48.876Z,5.73
2022-11-13T07:06:19.246Z,5.76
2022-11-13T07:08:47.016Z,5.74
2022-11-13T07:11:21.420Z,5.68
2022-11-13T07:13:48.994Z,5.73
2022-11-13T07:16:18.243Z,5.79
2022-11-13T07:18:51.990Z,5.69
2022-11-13T07:21:19.308Z,5.73
2022-11-13T07:23:49.078Z,5.74
2022-11-13T07:26:16.124Z,5.74
2022-11-13T07:28:42.912Z,5.74
2022-11-13T07:31:12.902Z,5.83
2022-11-13T07:33:39.721Z,5.79
2022-11-13T07:36:08.199Z,5.77
2022-11-13T07:38:35.209Z,5.85
2022-11-13T07:41:02.535Z,5.86
2022-11-13T07:43:29.450Z,5.88
2022-11-13T07:46:00.299Z,5.82
2022-11-13T07:48:28.326Z,5.81
2022-11-13T07:50:59.764Z,5.75
2022-11-13T07:53:26.529Z,5.83
2022-11-13T07:55:53.302Z,5.79
2022-11-13T07:58:20.076Z,5.63
2022-11-13T08:00:47.043Z,5.71
2022-11-13T08:03:16.752Z,5.70
2022-11-13T08:05:43.883Z,5.74
2022-11-13T08:08:15.109Z,5.81
2022-11-13T08:10:42.608Z,5.77
2022-11-13T08:13:10.976Z,5.80
2022-11-13T08:15:38.228Z,5.64
2022-11-13T08:18:05.923Z,5.68
2022-11-13T08:20:33.173Z,5.73
2022-11-13T08:23:01.941Z,5.76
2022-11-13T08:25:30.052Z,5.80
2022-11-13T08:27:57.148Z,5.60
2022-11-13T08:30:26.351Z,5.64
2022-11-13T08:32:53.633Z,5.68
2022-11-13T08:35:24.091Z,5.63
2022-11-13T08:37:53.520Z,5.72
2022-11-13T08:40:20.656Z,5.82
2022-11-13T08:42:47.529Z,5.76
2022-11-13T08:45:14.278Z,5.82
2022-11-13T08:47:41.067Z,5.82
2022-11-13T08:50:08.300Z,5.83
2022-11-13T08:52:35.041Z,5.77
2022-11-13T08:55:01.897Z,5.88
2022-11-13T08:57:28.648Z,5.87
2022-11-13T08:59:55.527Z,5.89
2022-11-13T09:02:22.292Z,5.93
2022-11-13T09:04:49.081Z,5.86
2022-11-13T09:07:16.261Z,5.86
2022-11-13T09:09:43.152Z,5.93
2022-11-13T09:12:09.901Z,6.05
2022-11-13T09:14:36.935Z,6.05
2022-11-13T09:17:04.190Z,6.13
2022-11-13T09:19:31.087Z,6.13
2022-11-13T09:21:58.091Z,5.93
2022-11-13T09:24:24.911Z,6.13
2022-11-13T09:26:51.724Z,6.15
2022-11-13T09:29:18.505Z,6.15
2022-11-13T09:31:45.389Z,6.14
2022-11-13T09:34:12.227Z,6.22
2022-11-13T09:36:38.992Z,6.20
2022-11-13T09:39:05.986Z,6.23
2022-11-13T09:41:43.193Z,6.15
2022-11-13T09:44:45.444Z,6.11
2022-11-13T09:47:19.982Z,6.21
2022-11-13T09:50:05.480Z,6.29
2022-11-13T09:52:39.200Z,6.22
2022-11-13T09:55:06.589Z,6.23
2022-11-13T09:57:48.537Z,6.36
2022-11-13T10:00:20.890Z,6.49
2022-11-13T10:04:00.671Z,6.44
2022-11-13T10:06:51.535Z,6.50
2022-11-13T10:09:34.072Z,6.44
2022-11-13T10:12:08.475Z,6.41
2022-11-13T10:14:45.882Z,6.47
2022-11-13T10:17:44.168Z,6.53
2022-11-13T10:20:20.085Z,6.38
2022-11-13T10:23:14.128Z,6.38
2022-11-13T10:25:42.688Z,6.43
2022-11-13T10:28:48.996Z,6.49
2022-11-13T10:31:06.502Z,6.49
2022-11-13T10:33:33.353Z,6.58
2022-11-13T10:36:20.820Z,6.62
2022-11-13T10:39:15.407Z,6.73
2022-11-13T10:41:54.509Z,6.78
2022-11-13T10:44:22.422Z,6.80
2022-11-13T10:46:49.409Z,6.79
2022-11-13T10:49:21.740Z,6.90
2022-11-13T10:51:57.409Z,6.95
2022-11-13T10:54:28.265Z,6.97
2022-11-13T10:57:22.691Z,7.01
2022-11-13T10:59:49.483Z,7.03
2022-11-13T11:02:25.818Z,7.07
2022-11-13T11:05:03.899Z,7.07
2022-11-13T11:07:40.700Z,7.08
2022-11-13T11:10:23.838Z,7.04
2022-11-13T11:13:18.356Z,7.13
2022-11-13T11:15:51.695Z,7.23
2022-11-13T11:18:28.650Z,7.31
2022-11-13T11:21:00.009Z,7.25
2022-11-13T11:23:41.657Z,7.30
2022-11-13T11:26:18.680Z,7.39
2022-11-13T11:28:53.928Z,7.49
2022-11-13T11:31:41.699Z,7.52
2022-11-13T11:34:33.246Z,7.58
2022-11-13T11:37:07.741Z,7.68
2022-11-13T11:40:04.878Z,7.72
2022-11-13T11:42:58.960Z,7.77
2022-11-13T11:45:30.790Z,7.84
2022-11-13T11:47:59.915Z,7.85
2022-11-13T11:51:13.267Z,7.93
2022-11-13T11:54:40.896Z,7.98
2022-11-13T11:57:45.058Z,8.03
2022-11-13T12:00:18.787Z,8.07
2022-11-13T12:03:28.067Z,8.13
2022-11-13T12:06:19.526Z,8.16
2022-11-13T12:09:24.605Z,8.18
2022-11-13T12:12:10.011Z,8.31
2022-11-13T12:15:16.006Z,8.35
2022-11-13T12:18:37.290Z,8.45
2022-11-13T12:21:24.820Z,8.42
2022-11-13T12:24:15.365Z,8.58
2022-11-13T12:27:20.025Z,8.68
2022-11-13T12:30:14.728Z,8.82
2022-11-13T12:33:28.765Z,8.89
2022-11-13T12:35:55.728Z,8.93
2022-11-13T12:38:47.966Z,8.99
2022-11-13T12:42:01.506Z,9.03
2022-11-13T12:44:30.569Z,9.09
2022-11-13T12:47:00.777Z,8.92
2022-11-13T12:49:33.049Z,9.17
2022-11-13T12:52:02.975Z,9.07
2022-11-13T12:54:33.232Z,9.23
2022-11-13T12:57:18.060Z,9.27
2022-11-13T12:59:55.371Z,9.30
2022-11-13T13:02:49.599Z,9.34
2022-11-13T13:05:57.541Z,9.36
2022-11-13T13:08:46.793Z,9.29
2022-11-13T13:11:48.516Z,9.41
2022-11-13T13:14:56.269Z,9.46
2022-11-13T13:17:24.297Z,9.50
2022-11-13T13:20:28.624Z,9.53
2022-11-13T13:22:58.466Z,9.37
2022-11-13T13:25:28.566Z,9.60
2022-11-13T13:28:13.555Z,9.63
2022-11-13T13:31:08.463Z,9.68
2022-11-13T13:34:22.144Z,9.73
2022-11-13T13:37:05.900Z,9.80
2022-11-13T13:39:51.697Z,9.82
2022-11-13T13:42:39.545Z,9.86
2022-11-13T13:45:35.473Z,9.90
2022-11-13T13:48:03.702Z,9.93
2022-11-13T13:50:40.583Z,9.97
2022-11-13T13:53:09.969Z,9.91
2022-11-13T13:55:45.109Z,10.03
2022-11-13T13:58:16.502Z,10.06
2022-11-13T14:01:05.266Z,10.09
2022-11-13T14:03:30.984Z,10.12
2022-11-13T14:06:28.815Z,10.17
2022-11-13T14:08:55.560Z,10.21
2022-11-13T14:11:27.043Z,10.25
2022-11-13T14:13:54.024Z,10.28
2022-11-13T14:16:20.954Z,10.30
2022-11-13T14:18:48.161Z,10.32
2022-11-13T14:21:21.964Z,10.34
2022-11-13T14:23:53.525Z,10.31
2022-11-13T14:26:20.913Z,10.38
2022-11-13T14:28:54.970Z,10.40
2022-11-13T14:31:32.403Z,10.43
2022-11-13T14:34:10.665Z,10.45
2022-11-13T14:36:38.389Z,10.46
2022-11-13T14:39:05.213Z,10.44
2022-11-13T14:41:34.492Z,10.51
2022-11-13T14:44:01.799Z,10.55
2022-11-13T14:46:36.967Z,10.56
2022-11-13T14:49:11.130Z,10.52
2022-11-13T14:51:37.881Z,10.46
2022-11-13T14:54:08.948Z,10.63
2022-11-13T14:56:42.950Z,10.65
2022-11-13T14:59:30.008Z,10.66
2022-11-13T15:01:58.308Z,10.66
2022-11-13T15:04:26.076Z,10.61
2022-11-13T15:06:55.803Z,10.67
2022-11-13T15:09:25.168Z,10.69
2022-11-13T15:11:52.291Z,10.63
2022-11-13T15:14:21.769Z,10.75
2022-11-13T15:16:52.305Z,10.63
2022-11-13T15:19:34.301Z,10.73
2022-11-13T15:24:48.476Z,10.75
2022-11-13T15:27:19.611Z,10.65
2022-11-13T15:29:46.505Z,10.70
2022-11-13T15:32:15.743Z,10.76
2022-11-13T15:34:42.564Z,10.76
2022-11-13T15:37:12.932Z,10.75
2022-11-13T15:39:39.836Z,10.72
2022-11-13T15:42:13.984Z,10.73
2022-11-13T15:44:40.880Z,10.69
2022-11-13T15:47:37.286Z,10.72
2022-11-13T15:50:14.748Z,10.68
2022-11-13T15:52:48.867Z,10.69
2022-11-13T15:55:36.044Z,10.69
2022-11-13T15:58:03.254Z,10.63
2022-11-13T16:00:30.190Z,10.48
2022-11-13T16:02:57.939Z,10.54
2022-11-13T16:05:28.915Z,10.53
2022-11-13T16:07:56.671Z,10.48
2022-11-13T16:10:27.344Z,10.46
2022-11-13T16:12:54.435Z,10.31
2022-11-13T16:15:21.579Z,10.40
2022-11-13T16:17:53.511Z,10.38
2022-11-13T16:20:20.390Z,10.38
2022-11-13T16:22:47.267Z,10.38
2022-11-13T16:25:22.643Z,10.25
2022-11-13T16:27:49.511Z,10.13
2022-11-13T16:30:23.345Z,10.29
2022-11-13T16:32:50.338Z,10.23
2022-11-13T16:35:19.310Z,10.14
2022-11-13T16:37:46.108Z,10.11
2022-11-13T16:40:28.615Z,10.12
2022-11-13T16:42:55.569Z,10.07
2022-11-13T16:45:22.549Z,10.06
2022-11-13T16:47:50.599Z,10.05
2022-11-13T16:50:27.016Z,9.94
2022-11-13T16:52:53.857Z,9.94
2022-11-13T16:55:20.684Z,10.03
2022-11-13T16:57:47.510Z,9.89
2022-11-13T17:00:19.083Z,9.80
2022-11-13T17:02:46.085Z,9.74
2022-11-13T17:05:17.238Z,9.69
2022-11-13T17:07:44.381Z,9.69
2022-11-13T17:10:33.188Z,9.66
2022-11-13T17:13:00.758Z,9.57
2022-11-13T17:15:27.607Z,9.50
2022-11-13T17:17:58.236Z,9.49
2022-11-13T17:20:25.393Z,9.41
2022-11-13T17:22:52.183Z,9.38
2022-11-13T17:25:20.461Z,9.35
2022-11-13T17:27:47.250Z,9.31
2022-11-13T17:30:14.661Z,9.18
2022-11-13T17:32:41.628Z,9.32
2022-11-13T17:35:11.438Z,9.21
2022-11-13T17:37:38.773Z,9.24
2022-11-13T17:40:06.435Z,9.20
2022-11-13T17:42:33.251Z,9.15
2022-11-13T17:45:00.073Z,9.15
2022-11-13T17:47:26.870Z,9.11
2022-11-13T17:49:53.637Z,9.06
2022-11-13T17:52:20.559Z,9.15
2022-11-13T17:54:47.321Z,9.04
2022-11-13T17:57:14.415Z,8.95
2022-11-13T17:59:41.352Z,8.87
2022-11-13T18:02:11.562Z,8.88
2022-11-13T18:04:38.328Z,8.76
2022-11-13T18:07:05.207Z,8.81
2022-11-13T18:09:32.048Z,8.77
2022-11-13T18:11:58.825Z,8.73
2022-11-13T18:14:25.569Z,8.69
2022-11-13T18:16:52.408Z,8.69
2022-11-13T18:19:19.292Z,8.67
2022-11-13T18:21:46.080Z,8.70
2022-11-13T18:24:16.696Z,8.70
2022-11-13T18:26:43.813Z,8.71
2022-11-13T18:29:10.870Z,8.63
2022-11-13T18:31:37.922Z,8.63
2022-11-13T18:34:06.406Z,8.62
2022-11-13T18:36:34.528Z,8.63
2022-11-13T18:39:05.668Z,8.61
2022-11-13T18:41:34.721Z,8.58
2022-11-13T18:44:01.560Z,8.56
2022-11-13T18:46:28.522Z,8.46
2022-11-13T18:48:56.644Z,8.50
2022-11-13T18:51:27.648Z,8.46
2022-11-13T18:53:55.990Z,8.50
2022-11-13T18:56:30.278Z,8.45
2022-11-13T18:58:59.232Z,8.38
2022-11-13T19:01:31.775Z,8.38
2022-11-13T19:04:22.160Z,8.28
2022-11-13T19:06:49.995Z,7.88
2022-11-13T19:09:17.547Z,8.28
2022-11-13T19:11:45.371Z,8.29
2022-11-13T19:14:17.974Z,8.20
2022-11-13T19:16:45.206Z,8.09
2022-11-13T19:19:22.135Z,8.17
2022-11-13T19:21:50.448Z,8.07
2022-11-13T19:24:17.793Z,8.08
2022-11-13T19:26:45.831Z,8.10
2022-11-13T19:29:13.660Z,8.07
2022-11-13T19:31:41.021Z,8.04
2022-11-13T19:34:08.770Z,8.05
2022-11-13T19:36:36.752Z,8.06
2022-11-13T19:39:04.731Z,7.98
2022-11-13T19:41:31.522Z,7.96
2022-11-13T19:44:01.912Z,7.94
2022-11-13T19:46:28.935Z,7.90
2022-11-13T19:48:55.734Z,7.90
2022-11-13T19:51:26.164Z,7.74
2022-11-13T19:53:58.567Z,7.79
2022-11-13T19:56:28.555Z,7.81
2022-11-13T19:58:56.364Z,7.76
2022-11-13T20:01:28.264Z,7.70
2022-11-13T20:04:02.938Z,7.67
2022-11-13T20:06:31.960Z,7.66
2022-11-13T20:09:03.742Z,7.62
2022-11-13T20:11:31.059Z,7.59
2022-11-13T20:13:57.865Z,7.59
2022-11-13T20:16:25.765Z,7.60
2022-11-13T20:18:56.467Z,7.53
2022-11-13T20:21:28.711Z,7.53
2022-11-13T20:23:57.841Z,7.44
2022-11-13T20:26:27.453Z,7.43
2022-11-13T20:28:54.284Z,7.41
2022-11-13T20:31:23.687Z,7.41
2022-11-13T20:33:52.440Z,7.35
2022-11-13T20:36:20.245Z,7.40
2022-11-13T20:38:57.429Z,7.36
2022-11-13T20:41:25.326Z,7.32
2022-11-13T20:43:53.182Z,7.17
2022-11-13T20:46:21.348Z,7.24
2022-11-13T20:48:48.663Z,7.18
2022-11-13T20:51:20.463Z,7.24
2022-11-13T20:53:48.507Z,7.20
2022-11-13T20:56:16.445Z,7.15
2022-11-13T20:58:43.783Z,7.21
2022-11-13T21:01:17.405Z,7.16
2022-11-13T21:03:45.420Z,7.14
2022-11-13T21:06:15.545Z,7.07
2022-11-13T21:08:43.088Z,7.00
2022-11-13T21:11:27.558Z,6.99
2022-11-13T21:13:55.421Z,6.97
2022-11-13T21:16:22.926Z,6.94
2022-11-13T21:18:50.570Z,6.92
2022-11-13T21:21:22.407Z,6.86
2022-11-13T21:23:49.521Z,6.87
2022-11-13T21:26:16.905Z,6.86
2022-11-13T21:28:44.429Z,6.77
2022-11-13T21:31:20.087Z,6.75
2022-11-13T21:33:48.353Z,6.76
2022-11-13T21:36:24.207Z,6.72
2022-11-13T21:38:52.937Z,6.61
2022-11-13T21:41:21.518Z,6.70
2022-11-13T21:43:48.204Z,6.69
2022-11-13T21:46:15.487Z,6.58
2022-11-13T21:48:43.189Z,6.67
2022-11-13T21:51:10.483Z,6.63
2022-11-13T21:53:38.095Z,6.53
2022-11-13T21:56:09.058Z,6.62
2022-11-13T21:58:41.178Z,6.61
2022-11-13T22:01:09.805Z,6.61
2022-11-13T22:03:37.400Z,6.56
2022-11-13T22:06:29.708Z,6.60
2022-11-13T22:09:13.132Z,6.59
2022-11-13T22:11:48.995Z,6.60
2022-11-13T22:14:29.485Z,6.66
2022-11-13T22:16:58.823Z,6.62
2022-11-13T22:19:27.835Z,6.61
2022-11-13T22:21:56.090Z,6.61
2022-11-13T22:24:22.947Z,6.65
2022-11-13T22:26:49.792Z,6.57
2022-11-13T22:29:16.968Z,6.67
2022-11-13T22:31:44.798Z,6.64
2022-11-13T22:34:11.607Z,6.65
2022-11-13T22:36:38.476Z,6.67
2022-11-13T22:39:05.955Z,6.58
2022-11-13T22:41:35.641Z,6.53
2022-11-13T22:44:07.137Z,6.63
2022-11-13T22:46:36.434Z,6.62
2022-11-13T22:49:05.469Z,6.49
2022-11-13T22:51:38.617Z,6.64
2022-11-13T22:54:11.951Z,6.65
2022-11-13T22:56:41.124Z,6.65
2022-11-13T22:59:11.052Z,6.61
2022-11-13T23:01:39.972Z,6.61
2022-11-13T23:04:12.222Z,6.56
2022-11-13T23:06:39.035Z,6.65
2022-11-13T23:09:06.814Z,6.58
2022-11-13T23:11:37.948Z,6.42
2022-11-13T23:14:10.345Z,6.48
2022-11-13T23:16:37.391Z,6.46
2022-11-13T23:19:04.508Z,6.51
2022-11-13T23:21:31.391Z,6.47
2022-11-13T23:23:58.757Z,6.41
2022-11-13T23:26:26.719Z,6.41
2022-11-13T23:28:53.960Z,6.30
2022-11-13T23:31:21.793Z,6.42
2022-11-13T23:33:48.659Z,6.34
2022-11-13T23:36:17.880Z,6.33
2022-11-13T23:38:44.774Z,6.24
2022-11-13T23:41:12.050Z,6.25
2022-11-13T23:46:25.691Z,6.21
2022-11-13T23:48:52.489Z,6.25
2022-11-13T23:51:19.366Z,6.20
2022-11-13T23:53:46.229Z,6.17
2022-11-13T23:56:13.020Z,6.13
2022-11-13T23:58:39.859Z,6.14
